Aviation Digital Data Service (ADDS)

Output produced by TAFs form (1201 UTC 20 January 2017)
found at http://www.aviationweather.gov/adds/tafs/
 
KPOU 201130Z 2012/2112 VRB03KT P6SM OVC025 
     FM201500 14003KT P6SM SCT025 BKN040 
     FM202200 VRB03KT P6SM VCSH BKN025 OVC040 
     FM210100 VRB02KT 4SM -SHRA BR OVC015 
     FM210900 00000KT 5SM BR OVC015